createdAt,value
2019-02-22T00:00:44.142Z,92.45
2019-02-22T00:03:12.541Z,92.46
2019-02-22T00:05:40.851Z,92.49
2019-02-22T00:08:09.149Z,92.66
2019-02-22T00:10:37.475Z,92.77
2019-02-22T00:13:05.779Z,92.77
2019-02-22T00:15:36.301Z,92.83
2019-02-22T00:18:04.175Z,92.92
2019-02-22T00:20:32.812Z,92.84
2019-02-22T00:23:01.109Z,93.08
2019-02-22T00:25:29.399Z,93.36
2019-02-22T00:27:57.748Z,93.39
2019-02-22T00:30:26.157Z,93.43
2019-02-22T00:32:54.826Z,93.29
2019-02-22T00:35:23.155Z,93.40
2019-02-22T00:37:51.476Z,93.48
2019-02-22T00:40:20.036Z,93.51
2019-02-22T00:42:50.265Z,93.35
2019-02-22T00:45:18.763Z,93.36
2019-02-22T00:47:47.093Z,93.27
2019-02-22T00:50:15.420Z,93.55
2019-02-22T00:52:43.791Z,93.69
2019-02-22T00:55:12.104Z,93.54
2019-02-22T00:57:40.482Z,93.60
2019-02-22T01:00:09.959Z,93.74
2019-02-22T01:02:38.263Z,93.83
2019-02-22T01:05:06.869Z,93.87
2019-02-22T01:07:35.175Z,93.94
2019-02-22T01:10:03.883Z,93.68
2019-02-22T01:12:32.430Z,93.90
2019-02-22T01:15:01.031Z,93.92
2019-02-22T01:17:29.330Z,93.97
2019-02-22T01:19:57.671Z,94.05
2019-02-22T01:22:25.979Z,94.07
2019-02-22T01:24:54.302Z,94.05
2019-02-22T01:27:22.598Z,94.05
2019-02-22T01:29:50.896Z,94.17
2019-02-22T01:32:19.216Z,94.28
2019-02-22T01:34:47.522Z,94.26
2019-02-22T01:37:16.153Z,94.21
2019-02-22T01:39:44.446Z,94.14
2019-02-22T01:42:12.769Z,94.12
2019-02-22T01:44:41.395Z,94.46
2019-02-22T01:47:09.783Z,94.57
2019-02-22T01:49:38.441Z,94.44
2019-02-22T01:52:06.737Z,94.49
2019-02-22T01:54:35.058Z,94.48
2019-02-22T01:57:03.353Z,94.46
2019-02-22T01:59:31.660Z,94.49
2019-02-22T02:01:59.984Z,94.50
2019-02-22T02:04:28.301Z,94.47
2019-02-22T02:06:56.889Z,94.41
2019-02-22T02:09:25.235Z,94.43
2019-02-22T02:11:53.513Z,94.30
2019-02-22T02:14:21.830Z,94.27
2019-02-22T02:16:50.146Z,94.29
2019-02-22T02:19:18.522Z,94.28
2019-02-22T02:21:47.096Z,94.29
2019-02-22T02:24:15.412Z,94.30
2019-02-22T02:26:43.718Z,94.46
2019-02-22T02:29:12.050Z,94.48
2019-02-22T02:31:40.366Z,94.43
2019-02-22T02:34:08.950Z,94.28
2019-02-22T02:36:37.258Z,94.44
2019-02-22T02:39:07.987Z,94.57
2019-02-22T02:41:36.344Z,94.63
2019-02-22T02:44:04.675Z,94.68
2019-02-22T02:46:33.076Z,94.74
2019-02-22T02:49:01.404Z,94.77
2019-02-22T02:51:29.742Z,94.70
2019-02-22T02:53:58.055Z,94.80
2019-02-22T02:56:26.368Z,94.93
2019-02-22T02:58:54.695Z,94.97
2019-02-22T03:01:23.280Z,94.95
2019-02-22T03:03:51.598Z,95.18
2019-02-22T03:06:21.586Z,95.16
2019-02-22T03:08:49.898Z,95.07
2019-02-22T03:11:21.086Z,95.04
2019-02-22T03:13:48.249Z,95.09
2019-02-22T03:16:16.623Z,95.18
2019-02-22T03:18:44.930Z,95.22
2019-02-22T03:21:13.244Z,95.21
2019-02-22T03:23:41.554Z,95.14
2019-02-22T03:26:09.981Z,95.06
2019-02-22T03:28:38.621Z,95.08
2019-02-22T03:31:06.922Z,95.13
2019-02-22T03:33:35.565Z,95.12
2019-02-22T03:36:03.861Z,95.11
2019-02-22T03:38:32.283Z,95.24
2019-02-22T03:41:00.902Z,95.24
2019-02-22T03:43:29.253Z,95.21
2019-02-22T03:45:57.541Z,95.20
2019-02-22T03:48:25.879Z,95.24
2019-02-22T03:50:54.172Z,95.26
2019-02-22T03:53:30.437Z,95.28
2019-02-22T03:55:58.718Z,95.27
2019-02-22T03:58:27.042Z,95.28
2019-02-22T04:00:55.356Z,95.31
2019-02-22T04:03:23.649Z,95.27
2019-02-22T04:05:51.974Z,95.38
2019-02-22T04:08:20.271Z,95.34
2019-02-22T04:10:48.583Z,95.47
2019-02-22T04:13:16.955Z,95.49
2019-02-22T04:15:45.452Z,95.47
2019-02-22T04:18:13.755Z,95.58
2019-02-22T04:20:42.088Z,95.65
2019-02-22T04:23:10.423Z,95.55
2019-02-22T04:25:38.993Z,95.62
2019-02-22T04:28:07.400Z,95.69
2019-02-22T04:30:37.829Z,95.71
2019-02-22T04:33:05.810Z,95.68
2019-02-22T04:35:34.130Z,95.68
2019-02-22T04:38:02.432Z,95.71
2019-02-22T04:40:30.742Z,95.68
2019-02-22T04:42:59.056Z,95.69
2019-02-22T04:45:27.364Z,95.77
2019-02-22T04:47:55.696Z,95.72
2019-02-22T04:50:23.983Z,95.77
2019-02-22T04:52:52.314Z,95.76
2019-02-22T04:55:20.647Z,95.53
2019-02-22T04:57:49.252Z,95.49
2019-02-22T05:00:17.839Z,95.52
2019-02-22T05:02:46.267Z,95.47
2019-02-22T05:05:15.425Z,95.62
2019-02-22T05:07:43.752Z,95.74
2019-02-22T05:10:12.069Z,95.81
2019-02-22T05:12:40.405Z,95.91
2019-02-22T05:15:12.579Z,95.98
2019-02-22T05:17:38.739Z,96.02
2019-02-22T05:20:07.058Z,96.07
2019-02-22T05:22:35.377Z,95.98
2019-02-22T05:25:04.875Z,96.09
2019-02-22T05:27:33.184Z,96.15
2019-02-22T05:30:01.509Z,96.08
2019-02-22T05:32:29.805Z,96.06
2019-02-22T05:34:58.128Z,95.96
2019-02-22T05:37:26.451Z,95.94
2019-02-22T05:39:55.187Z,96.07
2019-02-22T05:42:23.534Z,96.19
2019-02-22T05:44:51.785Z,96.19
2019-02-22T05:47:20.143Z,96.21
2019-02-22T05:49:48.506Z,96.18
2019-02-22T05:52:16.902Z,96.14
2019-02-22T05:54:45.205Z,96.10
2019-02-22T05:57:14.412Z,96.09
2019-02-22T05:59:42.818Z,96.04
2019-02-22T06:02:14.393Z,96.09
2019-02-22T06:04:41.548Z,96.06
2019-02-22T06:07:09.891Z,96.10
2019-02-22T06:09:38.199Z,96.09
2019-02-22T06:12:06.565Z,96.16
2019-02-22T06:14:35.244Z,96.20
2019-02-22T06:17:13.886Z,96.14
2019-02-22T06:19:33.600Z,96.11
2019-02-22T06:22:01.904Z,96.19
2019-02-22T06:24:30.211Z,96.14
2019-02-22T06:26:58.504Z,96.07
2019-02-22T06:29:26.859Z,96.06
2019-02-22T06:31:55.626Z,95.96
2019-02-22T06:34:24.180Z,96.03
2019-02-22T06:37:01.651Z,96.10
2019-02-22T06:39:23.130Z,96.17
2019-02-22T06:41:51.464Z,96.19
2019-02-22T06:44:19.773Z,96.19
2019-02-22T06:46:48.080Z,96.13
2019-02-22T06:49:16.399Z,96.01
2019-02-22T06:51:44.700Z,96.14
2019-02-22T06:54:13.274Z,96.16
2019-02-22T06:56:41.599Z,96.11
2019-02-22T06:59:09.897Z,96.12
2019-02-22T07:01:38.209Z,96.08
2019-02-22T07:04:06.624Z,96.09
2019-02-22T07:06:34.948Z,96.13
2019-02-22T07:09:06.851Z,96.16
2019-02-22T07:11:37.898Z,96.14
2019-02-22T07:14:06.562Z,96.11
2019-02-22T07:16:34.867Z,96.04
2019-02-22T07:19:03.179Z,96.02
2019-02-22T07:21:43.760Z,95.93
2019-02-22T07:24:02.694Z,95.82
2019-02-22T07:26:31.108Z,95.72
2019-02-22T07:28:59.421Z,95.64
2019-02-22T07:31:27.712Z,95.56
2019-02-22T07:33:56.034Z,95.48
2019-02-22T07:36:24.408Z,95.33
2019-02-22T07:38:52.990Z,95.30
2019-02-22T07:41:21.290Z,95.28
2019-02-22T07:43:49.612Z,95.13
2019-02-22T07:46:17.911Z,95.11
2019-02-22T07:48:46.225Z,94.99
2019-02-22T07:51:14.528Z,94.87
2019-02-22T07:53:42.839Z,94.73
2019-02-22T07:56:11.186Z,94.65
2019-02-22T07:58:39.576Z,94.59
2019-02-22T08:01:07.888Z,94.46
2019-02-22T08:03:37.395Z,94.45
2019-02-22T08:06:05.834Z,94.48
2019-02-22T08:08:34.132Z,94.46
2019-02-22T08:11:02.501Z,94.48
2019-02-22T08:13:30.864Z,94.33
2019-02-22T08:15:59.499Z,94.19
2019-02-22T08:18:27.839Z,94.14
2019-02-22T08:20:56.146Z,93.99
2019-02-22T08:23:24.468Z,93.55
2019-02-22T08:25:53.135Z,93.21
2019-02-22T08:28:21.458Z,93.16
2019-02-22T08:30:49.771Z,93.25
2019-02-22T08:33:18.110Z,93.17
2019-02-22T08:35:46.416Z,92.87
2019-02-22T08:38:14.746Z,92.69
2019-02-22T08:40:43.053Z,92.65
2019-02-22T08:43:11.382Z,92.58
2019-02-22T08:45:39.685Z,92.22
2019-02-22T08:48:08.327Z,91.96
2019-02-22T08:50:36.638Z,91.73
2019-02-22T08:53:04.945Z,91.28
2019-02-22T08:55:33.254Z,91.01
2019-02-22T08:58:01.564Z,90.75
2019-02-22T09:00:29.921Z,90.62
2019-02-22T09:02:58.214Z,90.19
2019-02-22T09:05:26.889Z,90.42
2019-02-22T09:07:55.198Z,90.44
2019-02-22T09:10:23.514Z,89.36
2019-02-22T09:12:51.829Z,88.68
2019-02-22T09:15:20.186Z,88.75
2019-02-22T09:17:48.479Z,88.64
2019-02-22T09:20:16.806Z,88.59
2019-02-22T09:22:45.111Z,88.67
2019-02-22T09:25:13.434Z,88.20
2019-02-22T09:27:41.730Z,87.99
2019-02-22T09:30:11.871Z,87.88
2019-02-22T09:32:40.198Z,87.66
2019-02-22T09:35:10.717Z,87.30
2019-02-22T09:37:39.092Z,87.02
2019-02-22T09:40:10.144Z,86.82
2019-02-22T09:42:38.902Z,86.80
2019-02-22T09:45:10.148Z,86.94
2019-02-22T09:47:38.477Z,86.66
2019-02-22T09:50:09.826Z,86.99
2019-02-22T09:52:38.158Z,86.29
2019-02-22T09:55:08.998Z,85.17
2019-02-22T09:57:37.566Z,84.55
2019-02-22T10:00:14.669Z,84.34
2019-02-22T10:02:44.931Z,84.26
2019-02-22T10:05:13.101Z,83.65
2019-02-22T10:07:41.395Z,83.55
2019-02-22T10:10:11.719Z,83.34
2019-02-22T10:12:40.026Z,83.12
2019-02-22T10:15:09.489Z,82.58
2019-02-22T10:17:37.797Z,82.45
2019-02-22T10:20:08.883Z,83.05
2019-02-22T10:22:37.191Z,83.38
2019-02-22T10:25:06.723Z,81.76
2019-02-22T10:27:35.318Z,80.35
2019-02-22T10:30:04.824Z,80.87
2019-02-22T10:32:33.157Z,79.86
2019-02-22T10:35:01.493Z,79.90
2019-02-22T10:37:29.800Z,80.25
2019-02-22T10:39:58.107Z,79.88
2019-02-22T10:42:26.723Z,79.86
2019-02-22T10:44:55.029Z,79.83
2019-02-22T10:47:23.355Z,79.94
2019-02-22T10:49:51.953Z,79.88
2019-02-22T10:52:20.287Z,80.25
2019-02-22T10:54:48.587Z,80.89
2019-02-22T10:57:16.898Z,81.14
2019-02-22T10:59:45.212Z,80.86
2019-02-22T11:02:13.542Z,80.63
2019-02-22T11:04:41.865Z,80.18
2019-02-22T11:07:10.176Z,79.86
2019-02-22T11:09:38.755Z,79.45
2019-02-22T11:12:07.098Z,79.08
2019-02-22T11:14:35.403Z,78.33
2019-02-22T11:17:03.771Z,76.69
2019-02-22T11:19:32.400Z,76.85
2019-02-22T11:22:01.080Z,77.29
2019-02-22T11:24:29.386Z,76.80
2019-02-22T11:26:58.047Z,76.65
2019-02-22T11:29:26.644Z,76.74
2019-02-22T11:31:55.064Z,76.81
2019-02-22T11:34:23.378Z,76.66
2019-02-22T11:36:51.708Z,76.17
2019-02-22T11:39:20.773Z,76.22
2019-02-22T11:41:49.087Z,76.45
2019-02-22T11:44:17.398Z,76.15
2019-02-22T11:46:45.716Z,76.63
2019-02-22T11:49:14.047Z,76.95
2019-02-22T11:51:42.366Z,77.28
2019-02-22T11:54:11.034Z,77.29
2019-02-22T11:56:39.329Z,76.33
2019-02-22T11:59:07.669Z,76.92
2019-02-22T12:01:36.035Z,76.67
2019-02-22T12:04:04.439Z,76.09
2019-02-22T12:06:32.728Z,76.37
2019-02-22T12:09:01.070Z,75.67
2019-02-22T12:11:29.361Z,76.47
2019-02-22T12:13:57.691Z,76.60
2019-02-22T12:16:26.016Z,76.17
2019-02-22T12:18:54.335Z,76.17
2019-02-22T12:21:23.194Z,75.75
2019-02-22T12:23:53.014Z,75.76
2019-02-22T12:26:21.423Z,74.77
2019-02-22T12:28:49.734Z,74.73
2019-02-22T12:31:18.052Z,75.13
2019-02-22T12:33:46.437Z,75.51
2019-02-22T12:36:14.755Z,75.29
2019-02-22T12:38:43.087Z,75.28
2019-02-22T12:41:11.466Z,74.88
2019-02-22T12:43:39.814Z,74.91
2019-02-22T12:46:08.148Z,73.72
2019-02-22T12:48:36.515Z,73.17
2019-02-22T12:51:04.843Z,73.06
2019-02-22T12:53:33.138Z,72.57
2019-02-22T12:56:01.457Z,71.98
2019-02-22T12:58:29.775Z,71.35
2019-02-22T13:00:58.092Z,71.57
2019-02-22T13:03:26.391Z,71.95
2019-02-22T13:05:54.729Z,72.83
2019-02-22T13:08:23.460Z,73.54
2019-02-22T13:10:51.795Z,73.96
2019-02-22T13:13:20.108Z,73.88
2019-02-22T13:15:48.413Z,73.29
2019-02-22T13:18:16.725Z,73.09
2019-02-22T13:20:45.040Z,72.98
2019-02-22T13:23:13.404Z,72.54
2019-02-22T13:25:41.717Z,72.12
2019-02-22T13:28:10.338Z,72.13
2019-02-22T13:30:38.939Z,71.85
2019-02-22T13:33:07.247Z,71.37
2019-02-22T13:35:35.558Z,71.37
2019-02-22T13:38:04.120Z,71.50
2019-02-22T13:40:32.557Z,71.83
2019-02-22T13:43:00.885Z,72.12
2019-02-22T13:45:29.218Z,71.71
2019-02-22T13:47:57.542Z,72.42
2019-02-22T13:50:25.858Z,72.54
2019-02-22T13:52:54.217Z,70.71
2019-02-22T13:55:22.831Z,70.14
2019-02-22T13:57:51.135Z,70.58
2019-02-22T14:00:20.284Z,71.21
2019-02-22T14:02:48.699Z,71.31
2019-02-22T14:05:17.101Z,71.82
2019-02-22T14:07:55.469Z,72.19
2019-02-22T14:10:24.493Z,72.13
2019-02-22T14:12:53.129Z,72.72
2019-02-22T14:15:22.021Z,73.28
2019-02-22T14:17:50.383Z,73.24
2019-02-22T14:20:19.390Z,73.74
2019-02-22T14:22:49.319Z,73.69
2019-02-22T14:25:17.715Z,73.12
2019-02-22T14:27:46.373Z,72.44
2019-02-22T14:30:18.206Z,72.69
2019-02-22T14:32:46.686Z,72.43
2019-02-22T14:35:14.989Z,72.72
2019-02-22T14:37:43.368Z,72.76
2019-02-22T14:40:12.753Z,72.82
2019-02-22T14:42:41.097Z,72.80
2019-02-22T14:45:10.740Z,72.86
2019-02-22T14:47:39.153Z,73.01
2019-02-22T14:50:13.172Z,73.13
2019-02-22T14:52:41.476Z,73.74
2019-02-22T14:55:10.070Z,74.23
2019-02-22T14:57:38.367Z,75.12
2019-02-22T15:00:12.300Z,75.08
2019-02-22T15:02:40.625Z,75.43
2019-02-22T15:05:10.072Z,76.21
2019-02-22T15:07:38.392Z,76.33
2019-02-22T15:10:08.990Z,76.67
2019-02-22T15:12:37.297Z,77.10
2019-02-22T15:15:21.087Z,77.35
2019-02-22T15:17:51.039Z,77.95
2019-02-22T15:20:19.338Z,77.79
2019-02-22T15:22:47.656Z,78.24
2019-02-22T15:25:17.439Z,78.21
2019-02-22T15:27:46.069Z,78.08
2019-02-22T15:30:16.095Z,78.02
2019-02-22T15:32:44.406Z,77.91
2019-02-22T15:35:15.337Z,77.69
2019-02-22T15:37:43.683Z,77.89
2019-02-22T15:40:12.770Z,78.38
2019-02-22T15:42:41.098Z,78.51
2019-02-22T15:45:17.697Z,78.48
2019-02-22T15:47:48.637Z,78.88
2019-02-22T15:50:16.979Z,79.00
2019-02-22T15:52:46.177Z,78.92
2019-02-22T15:55:14.614Z,79.23
2019-02-22T15:57:42.984Z,79.31
2019-02-22T16:00:14.771Z,79.50
2019-02-22T16:02:43.099Z,79.37
2019-02-22T16:05:13.109Z,79.31
2019-02-22T16:07:44.662Z,79.24
2019-02-22T16:10:11.638Z,79.28
2019-02-22T16:12:40.035Z,79.23
2019-02-22T16:15:10.110Z,78.98
2019-02-22T16:17:38.479Z,78.97
2019-02-22T16:20:08.133Z,79.20
2019-02-22T16:22:36.444Z,79.06
2019-02-22T16:25:06.294Z,79.11
2019-02-22T16:27:34.551Z,79.19
2019-02-22T16:30:03.080Z,79.51
2019-02-22T16:32:31.441Z,79.82
2019-02-22T16:34:59.765Z,79.86
2019-02-22T16:37:28.067Z,79.93
2019-02-22T16:39:56.379Z,79.85
2019-02-22T16:42:24.692Z,79.69
2019-02-22T16:44:53.000Z,79.61
2019-02-22T16:47:21.618Z,80.24
2019-02-22T16:49:50.319Z,80.52
2019-02-22T16:52:18.613Z,80.56
2019-02-22T16:54:46.909Z,80.92
2019-02-22T16:57:15.559Z,80.84
2019-02-22T16:59:44.114Z,80.98
2019-02-22T17:02:12.523Z,81.24
2019-02-22T17:04:40.817Z,81.42
2019-02-22T17:07:09.219Z,81.64
2019-02-22T17:09:37.654Z,81.37
2019-02-22T17:12:06.953Z,81.43
2019-02-22T17:14:35.331Z,81.52
2019-02-22T17:17:03.764Z,81.63
2019-02-22T17:19:32.067Z,81.71
2019-02-22T17:22:00.670Z,81.83
2019-02-22T17:24:28.978Z,81.83
2019-02-22T17:26:57.522Z,82.08
2019-02-22T17:29:25.947Z,82.19
2019-02-22T17:31:54.243Z,82.13
2019-02-22T17:34:22.574Z,82.21
2019-02-22T17:36:50.875Z,82.32
2019-02-22T17:39:19.257Z,82.23
2019-02-22T17:41:47.591Z,82.33
2019-02-22T17:44:16.057Z,82.42
2019-02-22T17:46:44.384Z,82.47
2019-02-22T17:49:12.743Z,82.57
2019-02-22T17:51:41.077Z,82.76
2019-02-22T17:54:09.473Z,82.73
2019-02-22T17:56:37.785Z,82.74
2019-02-22T17:59:06.348Z,82.92
2019-02-22T18:01:34.780Z,82.94
2019-02-22T18:04:03.094Z,83.27
2019-02-22T18:06:31.783Z,83.37
2019-02-22T18:09:00.215Z,83.48
2019-02-22T18:11:28.589Z,83.78
2019-02-22T18:13:57.040Z,83.86
2019-02-22T18:16:25.472Z,84.04
2019-02-22T18:18:54.091Z,84.14
2019-02-22T18:21:22.794Z,84.32
2019-02-22T18:23:51.088Z,84.66
2019-02-22T18:26:19.838Z,84.56
2019-02-22T18:28:48.146Z,84.87
2019-02-22T18:31:16.524Z,85.12
2019-02-22T18:33:44.883Z,85.34
2019-02-22T18:36:13.185Z,85.54
2019-02-22T18:38:41.528Z,85.43
2019-02-22T18:41:09.832Z,85.34
2019-02-22T18:43:38.155Z,85.15
2019-02-22T18:46:06.772Z,85.11
2019-02-22T18:48:35.187Z,84.94
2019-02-22T18:51:03.477Z,84.78
2019-02-22T18:53:31.793Z,84.69
2019-02-22T18:56:00.112Z,84.59
2019-02-22T18:58:28.504Z,84.13
2019-02-22T19:00:56.822Z,84.26
2019-02-22T19:03:25.167Z,84.33
2019-02-22T19:05:53.473Z,84.24
2019-02-22T19:08:31.835Z,84.28
2019-02-22T19:10:52.077Z,84.34
2019-02-22T19:13:20.391Z,84.33
2019-02-22T19:15:48.695Z,84.38
2019-02-22T19:18:17.264Z,83.97
2019-02-22T19:20:45.574Z,84.05
2019-02-22T19:23:13.901Z,84.16
2019-02-22T19:25:42.304Z,84.29
2019-02-22T19:28:10.958Z,84.24
2019-02-22T19:30:39.260Z,84.29
2019-02-22T19:33:07.585Z,84.24
2019-02-22T19:35:35.898Z,84.32
2019-02-22T19:38:04.648Z,84.28
2019-02-22T19:40:32.964Z,84.41
2019-02-22T19:43:01.635Z,84.43
2019-02-22T19:45:29.926Z,84.33
2019-02-22T19:47:58.274Z,84.34
2019-02-22T19:50:26.855Z,84.50
2019-02-22T19:52:55.186Z,84.66
2019-02-22T19:55:23.741Z,84.58
2019-02-22T19:57:52.043Z,84.70
2019-02-22T20:00:20.512Z,84.78
2019-02-22T20:02:49.177Z,84.78
2019-02-22T20:05:17.752Z,84.62
2019-02-22T20:07:46.063Z,84.35
2019-02-22T20:10:21.516Z,84.51
2019-02-22T20:12:50.162Z,84.60
2019-02-22T20:15:18.623Z,84.81
2019-02-22T20:17:54.222Z,84.85
2019-02-22T20:20:17.891Z,84.84
2019-02-22T20:22:46.299Z,84.77
2019-02-22T20:25:15.134Z,84.77
2019-02-22T20:27:43.464Z,84.61
2019-02-22T20:30:17.065Z,84.65
2019-02-22T20:32:45.388Z,84.52
2019-02-22T20:35:16.528Z,84.72
2019-02-22T20:37:52.543Z,84.70
2019-02-22T20:40:15.166Z,84.77
2019-02-22T20:42:43.702Z,84.68
2019-02-22T20:45:12.668Z,84.84
2019-02-22T20:47:41.212Z,84.97
2019-02-22T20:50:14.370Z,84.84
2019-02-22T20:52:42.673Z,84.92
2019-02-22T20:55:11.435Z,85.06
2019-02-22T20:57:40.035Z,85.10
2019-02-22T21:00:19.639Z,85.16
2019-02-22T21:02:48.241Z,85.22
2019-02-22T21:05:16.534Z,85.29
2019-02-22T21:07:44.873Z,85.23
2019-02-22T21:10:17.860Z,84.06
2019-02-22T21:12:46.168Z,84.72
2019-02-22T21:15:14.706Z,85.20
2019-02-22T21:17:43.071Z,85.46
2019-02-22T21:20:16.882Z,85.82
2019-02-22T21:22:45.451Z,85.72
2019-02-22T21:25:13.814Z,85.67
2019-02-22T21:27:42.125Z,85.85
2019-02-22T21:30:12.971Z,85.76
2019-02-22T21:32:41.282Z,86.07
2019-02-22T21:35:10.429Z,86.11
2019-02-22T21:37:40.070Z,86.08
2019-02-22T21:40:10.247Z,86.08
2019-02-22T21:42:38.558Z,86.11
2019-02-22T21:45:10.224Z,86.12
2019-02-22T21:47:38.524Z,86.46
2019-02-22T21:50:15.027Z,86.37
2019-02-22T21:52:43.487Z,86.66
2019-02-22T21:55:13.027Z,86.83
2019-02-22T21:57:41.339Z,86.96
2019-02-22T22:00:21.653Z,86.90
2019-02-22T22:02:50.318Z,86.79
2019-02-22T22:05:19.007Z,87.03
2019-02-22T22:07:47.670Z,87.21
2019-02-22T22:10:16.189Z,87.32
2019-02-22T22:12:44.480Z,87.37
2019-02-22T22:15:14.220Z,87.46
2019-02-22T22:17:42.562Z,87.42
2019-02-22T22:20:11.223Z,87.19
2019-02-22T22:22:39.916Z,87.25
2019-02-22T22:25:10.930Z,87.44
2019-02-22T22:27:39.251Z,87.46
2019-02-22T22:30:10.355Z,87.47
2019-02-22T22:32:38.659Z,87.47
2019-02-22T22:35:11.621Z,87.39
2019-02-22T22:37:40.040Z,87.66
2019-02-22T22:40:10.131Z,87.70
2019-02-22T22:42:38.432Z,87.54
2019-02-22T22:45:11.991Z,87.44
2019-02-22T22:47:40.282Z,87.72
2019-02-22T22:50:11.407Z,87.83
2019-02-22T22:52:39.776Z,87.73
2019-02-22T22:55:09.662Z,87.79
2019-02-22T22:57:37.967Z,87.88
2019-02-22T23:00:30.946Z,87.73
2019-02-22T23:02:59.234Z,87.75
2019-02-22T23:05:27.563Z,87.84
2019-02-22T23:07:55.884Z,87.94
2019-02-22T23:10:24.205Z,88.06
2019-02-22T23:12:52.510Z,88.30
2019-02-22T23:15:20.819Z,88.28
2019-02-22T23:17:49.121Z,88.47
2019-02-22T23:20:17.427Z,88.39
2019-02-22T23:22:45.758Z,88.19
2019-02-22T23:25:14.156Z,88.04
2019-02-22T23:27:42.457Z,87.99
2019-02-22T23:30:11.159Z,88.08
2019-02-22T23:32:39.465Z,88.21
2019-02-22T23:35:07.800Z,88.17
2019-02-22T23:37:36.094Z,88.07
2019-02-22T23:40:04.950Z,88.41
2019-02-22T23:42:33.235Z,88.39
2019-02-22T23:45:01.562Z,88.46
2019-02-22T23:47:29.847Z,88.67
2019-02-22T23:49:58.167Z,89.01
2019-02-22T23:52:27.185Z,89.02
2019-02-22T23:54:55.500Z,89.07
2019-02-22T23:57:23.811Z,88.81
2019-02-22T23:59:52.255Z,88.89
